sensor_id;sensor_type;location;lat;lon;timestamp;temperature;humidity
44063;DHT22;29727;47.606;19.130;2023-02-12T00:00:22;6.60;74.70
44063;DHT22;29727;47.606;19.130;2023-02-12T00:02:48;6.60;74.40
44063;DHT22;29727;47.606;19.130;2023-02-12T00:05:14;6.70;74.30
44063;DHT22;29727;47.606;19.130;2023-02-12T00:07:41;6.70;74.30
44063;DHT22;29727;47.606;19.130;2023-02-12T00:10:07;6.80;74.10
44063;DHT22;29727;47.606;19.130;2023-02-12T00:12:33;6.80;74.00
44063;DHT22;29727;47.606;19.130;2023-02-12T00:14:59;6.80;74.10
44063;DHT22;29727;47.606;19.130;2023-02-12T00:17:25;6.70;73.70
44063;DHT22;29727;47.606;19.130;2023-02-12T00:19:50;6.70;74.30
44063;DHT22;29727;47.606;19.130;2023-02-12T00:22:16;6.70;74.50
44063;DHT22;29727;47.606;19.130;2023-02-12T00:24:42;6.60;74.80
44063;DHT22;29727;47.606;19.130;2023-02-12T00:27:07;6.60;75.40
44063;DHT22;29727;47.606;19.130;2023-02-12T00:29:33;6.50;75.60
44063;DHT22;29727;47.606;19.130;2023-02-12T00:31:58;6.50;75.80
44063;DHT22;29727;47.606;19.130;2023-02-12T00:36:50;6.40;75.90
44063;DHT22;29727;47.606;19.130;2023-02-12T00:39:16;6.40;76.60
44063;DHT22;29727;47.606;19.130;2023-02-12T00:41:41;6.40;76.80
44063;DHT22;29727;47.606;19.130;2023-02-12T00:44:07;6.40;76.70
44063;DHT22;29727;47.606;19.130;2023-02-12T00:46:33;6.40;77.10
44063;DHT22;29727;47.606;19.130;2023-02-12T00:48:58;6.40;77.00
44063;DHT22;29727;47.606;19.130;2023-02-12T00:51:24;6.40;77.00
44063;DHT22;29727;47.606;19.130;2023-02-12T00:53:50;6.40;76.90
44063;DHT22;29727;47.606;19.130;2023-02-12T00:56:15;6.40;76.80
44063;DHT22;29727;47.606;19.130;2023-02-12T00:58:41;6.40;76.30
44063;DHT22;29727;47.606;19.130;2023-02-12T01:01:07;6.50;76.80
44063;DHT22;29727;47.606;19.130;2023-02-12T01:03:32;6.50;76.80
44063;DHT22;29727;47.606;19.130;2023-02-12T01:05:58;6.50;76.70
44063;DHT22;29727;47.606;19.130;2023-02-12T01:08:24;6.40;76.80
44063;DHT22;29727;47.606;19.130;2023-02-12T01:10:55;6.40;76.90
44063;DHT22;29727;47.606;19.130;2023-02-12T01:13:22;6.40;76.90
44063;DHT22;29727;47.606;19.130;2023-02-12T01:15:48;6.40;77.00
44063;DHT22;29727;47.606;19.130;2023-02-12T01:18:14;6.30;77.40
44063;DHT22;29727;47.606;19.130;2023-02-12T01:20:40;6.30;77.30
44063;DHT22;29727;47.606;19.130;2023-02-12T01:23:06;6.30;77.30
44063;DHT22;29727;47.606;19.130;2023-02-12T01:25:33;6.30;77.40
44063;DHT22;29727;47.606;19.130;2023-02-12T01:27:58;6.30;77.60
44063;DHT22;29727;47.606;19.130;2023-02-12T01:30:24;6.30;77.60
44063;DHT22;29727;47.606;19.130;2023-02-12T01:32:50;6.20;77.70
44063;DHT22;29727;47.606;19.130;2023-02-12T01:35:15;6.20;77.80
44063;DHT22;29727;47.606;19.130;2023-02-12T01:37:41;6.20;77.70
44063;DHT22;29727;47.606;19.130;2023-02-12T01:40:08;6.20;77.80
44063;DHT22;29727;47.606;19.130;2023-02-12T01:42:34;6.20;77.90
44063;DHT22;29727;47.606;19.130;2023-02-12T01:47:42;6.20;77.90
44063;DHT22;29727;47.606;19.130;2023-02-12T01:50:12;6.20;77.80
44063;DHT22;29727;47.606;19.130;2023-02-12T01:52:45;6.20;77.70
44063;DHT22;29727;47.606;19.130;2023-02-12T01:55:13;6.20;77.60
44063;DHT22;29727;47.606;19.130;2023-02-12T01:57:42;6.20;76.90
44063;DHT22;29727;47.606;19.130;2023-02-12T02:00:16;6.30;77.50
44063;DHT22;29727;47.606;19.130;2023-02-12T02:02:45;6.30;77.50
44063;DHT22;29727;47.606;19.130;2023-02-12T02:05:15;6.30;77.30
44063;DHT22;29727;47.606;19.130;2023-02-12T02:07:43;6.30;77.40
44063;DHT22;29727;47.606;19.130;2023-02-12T02:10:11;6.30;77.40
44063;DHT22;29727;47.606;19.130;2023-02-12T02:12:37;6.30;77.40
44063;DHT22;29727;47.606;19.130;2023-02-12T02:15:24;6.20;77.60
44063;DHT22;29727;47.606;19.130;2023-02-12T02:32:28;6.20;78.10
44063;DHT22;29727;47.606;19.130;2023-02-12T02:35:07;6.20;77.90
44063;DHT22;29727;47.606;19.130;2023-02-12T02:37:39;6.20;77.80
44063;DHT22;29727;47.606;19.130;2023-02-12T02:40:13;6.20;77.70
44063;DHT22;29727;47.606;19.130;2023-02-12T02:45:18;6.20;77.70
44063;DHT22;29727;47.606;19.130;2023-02-12T02:48:01;6.30;77.80
44063;DHT22;29727;47.606;19.130;2023-02-12T02:50:29;6.30;77.80
44063;DHT22;29727;47.606;19.130;2023-02-12T02:53:01;6.30;77.70
44063;DHT22;29727;47.606;19.130;2023-02-12T02:55:34;6.30;77.70
44063;DHT22;29727;47.606;19.130;2023-02-12T02:58:11;6.30;77.00
44063;DHT22;29727;47.606;19.130;2023-02-12T03:00:43;6.30;77.60
44063;DHT22;29727;47.606;19.130;2023-02-12T03:03:33;6.30;77.70
44063;DHT22;29727;47.606;19.130;2023-02-12T03:06:06;6.30;77.60
44063;DHT22;29727;47.606;19.130;2023-02-12T03:08:38;6.30;77.70
44063;DHT22;29727;47.606;19.130;2023-02-12T03:11:14;6.30;77.60
44063;DHT22;29727;47.606;19.130;2023-02-12T03:13:48;6.30;77.60
44063;DHT22;29727;47.606;19.130;2023-02-12T03:16:41;6.30;77.60
44063;DHT22;29727;47.606;19.130;2023-02-12T03:19:13;6.30;77.60
44063;DHT22;29727;47.606;19.130;2023-02-12T03:21:44;6.30;77.60
44063;DHT22;29727;47.606;19.130;2023-02-12T03:24:21;6.30;77.70
44063;DHT22;29727;47.606;19.130;2023-02-12T03:27:06;6.30;77.70
44063;DHT22;29727;47.606;19.130;2023-02-12T03:29:33;6.30;77.70
44063;DHT22;29727;47.606;19.130;2023-02-12T03:32:35;6.30;77.50
44063;DHT22;29727;47.606;19.130;2023-02-12T03:35:13;6.30;77.60
44063;DHT22;29727;47.606;19.130;2023-02-12T03:38:00;6.30;76.90
44063;DHT22;29727;47.606;19.130;2023-02-12T03:40:35;6.30;76.90
44063;DHT22;29727;47.606;19.130;2023-02-12T03:48:26;6.30;77.60
44063;DHT22;29727;47.606;19.130;2023-02-12T03:51:14;6.30;77.50
44063;DHT22;29727;47.606;19.130;2023-02-12T03:53:41;6.30;77.70
44063;DHT22;29727;47.606;19.130;2023-02-12T03:56:18;6.30;77.80
44063;DHT22;29727;47.606;19.130;2023-02-12T03:58:44;6.30;77.30
44063;DHT22;29727;47.606;19.130;2023-02-12T04:01:11;6.20;78.00
44063;DHT22;29727;47.606;19.130;2023-02-12T04:03:37;6.20;78.10
44063;DHT22;29727;47.606;19.130;2023-02-12T04:06:03;6.20;78.10
44063;DHT22;29727;47.606;19.130;2023-02-12T04:08:30;6.20;78.40
44063;DHT22;29727;47.606;19.130;2023-02-12T04:11:27;6.20;78.30
44063;DHT22;29727;47.606;19.130;2023-02-12T04:19:22;6.10;78.40
44063;DHT22;29727;47.606;19.130;2023-02-12T04:30:20;6.20;78.50
44063;DHT22;29727;47.606;19.130;2023-02-12T04:32:54;6.20;78.30
44063;DHT22;29727;47.606;19.130;2023-02-12T04:38:09;6.20;78.50
44063;DHT22;29727;47.606;19.130;2023-02-12T04:40:40;6.20;78.40
44063;DHT22;29727;47.606;19.130;2023-02-12T04:43:07;6.20;78.30
44063;DHT22;29727;47.606;19.130;2023-02-12T04:45:34;6.20;78.20
44063;DHT22;29727;47.606;19.130;2023-02-12T04:48:00;6.30;78.10
44063;DHT22;29727;47.606;19.130;2023-02-12T04:50:33;6.30;78.10
44063;DHT22;29727;47.606;19.130;2023-02-12T04:53:01;6.30;78.60
44063;DHT22;29727;47.606;19.130;2023-02-12T04:55:26;6.30;77.70
44063;DHT22;29727;47.606;19.130;2023-02-12T04:57:52;6.30;77.20
44063;DHT22;29727;47.606;19.130;2023-02-12T05:00:18;6.30;77.40
44063;DHT22;29727;47.606;19.130;2023-02-12T05:02:44;6.40;77.60
44063;DHT22;29727;47.606;19.130;2023-02-12T05:05:09;6.40;77.60
44063;DHT22;29727;47.606;19.130;2023-02-12T05:07:35;6.40;78.10
44063;DHT22;29727;47.606;19.130;2023-02-12T05:10:01;6.40;77.40
44063;DHT22;29727;47.606;19.130;2023-02-12T05:12:27;6.40;77.40
44063;DHT22;29727;47.606;19.130;2023-02-12T05:14:54;6.40;77.60
44063;DHT22;29727;47.606;19.130;2023-02-12T05:17:21;6.40;77.60
44063;DHT22;29727;47.606;19.130;2023-02-12T05:19:47;6.40;77.60
44063;DHT22;29727;47.606;19.130;2023-02-12T05:22:13;6.40;77.60
44063;DHT22;29727;47.606;19.130;2023-02-12T05:24:38;6.40;77.80
44063;DHT22;29727;47.606;19.130;2023-02-12T05:27:05;6.40;77.70
44063;DHT22;29727;47.606;19.130;2023-02-12T05:29:32;6.30;77.30
44063;DHT22;29727;47.606;19.130;2023-02-12T05:31:58;6.30;77.90
44063;DHT22;29727;47.606;19.130;2023-02-12T05:34:23;6.30;78.00
44063;DHT22;29727;47.606;19.130;2023-02-12T05:36:49;6.40;77.70
44063;DHT22;29727;47.606;19.130;2023-02-12T05:39:15;6.40;77.40
44063;DHT22;29727;47.606;19.130;2023-02-12T05:41:41;6.40;77.40
44063;DHT22;29727;47.606;19.130;2023-02-12T05:44:06;6.40;77.60
44063;DHT22;29727;47.606;19.130;2023-02-12T05:46:32;6.40;77.80
44063;DHT22;29727;47.606;19.130;2023-02-12T05:48:58;6.40;77.80
44063;DHT22;29727;47.606;19.130;2023-02-12T05:51:25;6.30;77.80
44063;DHT22;29727;47.606;19.130;2023-02-12T05:53:56;6.30;77.70
44063;DHT22;29727;47.606;19.130;2023-02-12T05:56:24;6.30;77.60
44063;DHT22;29727;47.606;19.130;2023-02-12T05:59:02;6.30;78.10
44063;DHT22;29727;47.606;19.130;2023-02-12T06:01:31;6.30;78.20
44063;DHT22;29727;47.606;19.130;2023-02-12T06:03:58;6.20;78.40
44063;DHT22;29727;47.606;19.130;2023-02-12T06:06:28;6.20;78.20
44063;DHT22;29727;47.606;19.130;2023-02-12T06:08:54;6.30;78.00
44063;DHT22;29727;47.606;19.130;2023-02-12T06:11:20;6.20;78.20
44063;DHT22;29727;47.606;19.130;2023-02-12T06:13:46;6.20;78.50
44063;DHT22;29727;47.606;19.130;2023-02-12T06:16:30;6.20;78.20
44063;DHT22;29727;47.606;19.130;2023-02-12T06:18:59;6.20;78.40
44063;DHT22;29727;47.606;19.130;2023-02-12T06:21:26;6.20;77.90
44063;DHT22;29727;47.606;19.130;2023-02-12T06:23:52;6.20;78.50
44063;DHT22;29727;47.606;19.130;2023-02-12T06:26:19;6.20;78.60
44063;DHT22;29727;47.606;19.130;2023-02-12T06:28:45;6.20;78.50
44063;DHT22;29727;47.606;19.130;2023-02-12T06:31:25;6.20;78.60
44063;DHT22;29727;47.606;19.130;2023-02-12T06:33:52;6.30;78.90
44063;DHT22;29727;47.606;19.130;2023-02-12T06:36:18;6.30;79.00
44063;DHT22;29727;47.606;19.130;2023-02-12T06:38:45;6.20;79.20
44063;DHT22;29727;47.606;19.130;2023-02-12T06:41:11;6.20;79.20
44063;DHT22;29727;47.606;19.130;2023-02-12T06:43:37;6.20;79.20
44063;DHT22;29727;47.606;19.130;2023-02-12T06:46:03;6.30;79.30
44063;DHT22;29727;47.606;19.130;2023-02-12T06:48:30;6.30;79.30
44063;DHT22;29727;47.606;19.130;2023-02-12T06:50:56;6.30;79.50
44063;DHT22;29727;47.606;19.130;2023-02-12T06:53:21;6.40;78.60
44063;DHT22;29727;47.606;19.130;2023-02-12T06:55:47;6.40;79.10
44063;DHT22;29727;47.606;19.130;2023-02-12T06:58:12;6.50;78.20
44063;DHT22;29727;47.606;19.130;2023-02-12T07:00:40;6.50;78.10
44063;DHT22;29727;47.606;19.130;2023-02-12T07:03:05;6.60;77.70
44063;DHT22;29727;47.606;19.130;2023-02-12T07:05:31;6.60;77.30
44063;DHT22;29727;47.606;19.130;2023-02-12T07:07:57;6.70;76.90
44063;DHT22;29727;47.606;19.130;2023-02-12T07:10:23;6.80;76.70
44063;DHT22;29727;47.606;19.130;2023-02-12T07:12:48;6.80;76.30
44063;DHT22;29727;47.606;19.130;2023-02-12T07:15:14;6.90;76.00
44063;DHT22;29727;47.606;19.130;2023-02-12T07:17:40;6.90;75.90
44063;DHT22;29727;47.606;19.130;2023-02-12T07:20:06;7.00;75.20
44063;DHT22;29727;47.606;19.130;2023-02-12T07:22:35;7.00;74.90
44063;DHT22;29727;47.606;19.130;2023-02-12T07:25:00;7.00;74.70
44063;DHT22;29727;47.606;19.130;2023-02-12T07:27:26;7.10;74.30
44063;DHT22;29727;47.606;19.130;2023-02-12T07:29:52;7.10;74.30
44063;DHT22;29727;47.606;19.130;2023-02-12T07:32:17;7.10;74.30
44063;DHT22;29727;47.606;19.130;2023-02-12T07:34:43;7.20;74.30
44063;DHT22;29727;47.606;19.130;2023-02-12T07:37:09;7.20;74.20
44063;DHT22;29727;47.606;19.130;2023-02-12T07:39:34;7.30;74.00
44063;DHT22;29727;47.606;19.130;2023-02-12T07:42:00;7.30;73.70
44063;DHT22;29727;47.606;19.130;2023-02-12T07:44:25;7.30;73.70
44063;DHT22;29727;47.606;19.130;2023-02-12T07:46:51;7.40;73.70
44063;DHT22;29727;47.606;19.130;2023-02-12T07:49:19;7.40;73.50
44063;DHT22;29727;47.606;19.130;2023-02-12T07:51:46;7.50;73.60
44063;DHT22;29727;47.606;19.130;2023-02-12T07:54:13;7.50;73.00
44063;DHT22;29727;47.606;19.130;2023-02-12T07:56:40;7.60;72.90
44063;DHT22;29727;47.606;19.130;2023-02-12T07:59:10;7.60;73.50
44063;DHT22;29727;47.606;19.130;2023-02-12T08:01:39;7.70;72.90
44063;DHT22;29727;47.606;19.130;2023-02-12T08:04:10;7.70;72.50
44063;DHT22;29727;47.606;19.130;2023-02-12T08:06:39;7.80;72.40
44063;DHT22;29727;47.606;19.130;2023-02-12T08:09:09;7.80;72.40
44063;DHT22;29727;47.606;19.130;2023-02-12T08:11:37;7.80;72.60
44063;DHT22;29727;47.606;19.130;2023-02-12T08:14:04;7.90;72.20
44063;DHT22;29727;47.606;19.130;2023-02-12T08:16:30;7.90;72.10
44063;DHT22;29727;47.606;19.130;2023-02-12T08:18:56;7.90;72.30
44063;DHT22;29727;47.606;19.130;2023-02-12T08:21:27;8.00;72.00
44063;DHT22;29727;47.606;19.130;2023-02-12T08:23:54;8.00;71.40
44063;DHT22;29727;47.606;19.130;2023-02-12T08:26:21;8.00;71.90
44063;DHT22;29727;47.606;19.130;2023-02-12T08:28:52;8.10;71.90
44063;DHT22;29727;47.606;19.130;2023-02-12T08:31:27;8.10;71.60
44063;DHT22;29727;47.606;19.130;2023-02-12T08:33:53;8.20;71.80
44063;DHT22;29727;47.606;19.130;2023-02-12T08:36:28;8.20;71.60
44063;DHT22;29727;47.606;19.130;2023-02-12T08:38:57;8.30;71.60
44063;DHT22;29727;47.606;19.130;2023-02-12T08:41:25;8.30;71.60
44063;DHT22;29727;47.606;19.130;2023-02-12T08:43:54;8.40;71.40
44063;DHT22;29727;47.606;19.130;2023-02-12T08:46:23;8.50;71.10
44063;DHT22;29727;47.606;19.130;2023-02-12T08:48:52;8.50;70.90
44063;DHT22;29727;47.606;19.130;2023-02-12T08:51:21;8.60;70.80
44063;DHT22;29727;47.606;19.130;2023-02-12T08:53:50;8.70;70.60
44063;DHT22;29727;47.606;19.130;2023-02-12T08:56:17;8.80;69.10
44063;DHT22;29727;47.606;19.130;2023-02-12T08:58:43;8.80;69.60
44063;DHT22;29727;47.606;19.130;2023-02-12T09:01:14;8.80;69.90
44063;DHT22;29727;47.606;19.130;2023-02-12T09:03:41;8.90;68.40
44063;DHT22;29727;47.606;19.130;2023-02-12T09:06:07;8.90;69.00
44063;DHT22;29727;47.606;19.130;2023-02-12T09:08:34;9.00;68.40
44063;DHT22;29727;47.606;19.130;2023-02-12T09:11:04;9.10;68.10
44063;DHT22;29727;47.606;19.130;2023-02-12T09:13:30;9.10;67.80
44063;DHT22;29727;47.606;19.130;2023-02-12T09:15:59;9.20;67.90
44063;DHT22;29727;47.606;19.130;2023-02-12T09:18:24;9.20;67.90
44063;DHT22;29727;47.606;19.130;2023-02-12T09:20:50;9.30;68.40
44063;DHT22;29727;47.606;19.130;2023-02-12T09:23:15;9.30;67.60
44063;DHT22;29727;47.606;19.130;2023-02-12T09:25:44;9.40;66.30
44063;DHT22;29727;47.606;19.130;2023-02-12T09:28:11;9.50;67.00
44063;DHT22;29727;47.606;19.130;2023-02-12T09:30:38;9.50;65.80
44063;DHT22;29727;47.606;19.130;2023-02-12T09:33:05;9.60;66.10
44063;DHT22;29727;47.606;19.130;2023-02-12T09:35:33;9.70;65.90
44063;DHT22;29727;47.606;19.130;2023-02-12T09:37:59;9.80;65.50
44063;DHT22;29727;47.606;19.130;2023-02-12T09:46:41;10.00;63.70
44063;DHT22;29727;47.606;19.130;2023-02-12T09:51:59;10.20;63.10
44063;DHT22;29727;47.606;19.130;2023-02-12T09:54:36;10.30;63.20
44063;DHT22;29727;47.606;19.130;2023-02-12T09:57:11;10.40;61.80
44063;DHT22;29727;47.606;19.130;2023-02-12T09:59:53;10.50;61.90
44063;DHT22;29727;47.606;19.130;2023-02-12T10:02:21;10.60;60.90
44063;DHT22;29727;47.606;19.130;2023-02-12T10:04:49;10.70;61.30
44063;DHT22;29727;47.606;19.130;2023-02-12T10:12:54;10.90;60.20
44063;DHT22;29727;47.606;19.130;2023-02-12T10:15:34;11.10;60.70
44063;DHT22;29727;47.606;19.130;2023-02-12T10:18:32;11.10;59.60
44063;DHT22;29727;47.606;19.130;2023-02-12T10:21:19;11.20;59.80
44063;DHT22;29727;47.606;19.130;2023-02-12T10:26:43;11.40;58.80
44063;DHT22;29727;47.606;19.130;2023-02-12T10:29:19;11.50;58.70
44063;DHT22;29727;47.606;19.130;2023-02-12T10:31:57;11.50;58.40
44063;DHT22;29727;47.606;19.130;2023-02-12T10:34:29;11.50;58.10
44063;DHT22;29727;47.606;19.130;2023-02-12T10:39:56;11.60;58.30
44063;DHT22;29727;47.606;19.130;2023-02-12T10:42:35;11.60;57.90
44063;DHT22;29727;47.606;19.130;2023-02-12T10:45:01;11.70;57.80
44063;DHT22;29727;47.606;19.130;2023-02-12T10:47:27;11.60;57.60
44063;DHT22;29727;47.606;19.130;2023-02-12T10:50:01;11.60;58.00
44063;DHT22;29727;47.606;19.130;2023-02-12T10:53:00;11.60;57.80
44063;DHT22;29727;47.606;19.130;2023-02-12T10:55:30;11.60;57.60
44063;DHT22;29727;47.606;19.130;2023-02-12T10:57:58;11.50;57.60
44063;DHT22;29727;47.606;19.130;2023-02-12T11:00:35;11.50;59.10
44063;DHT22;29727;47.606;19.130;2023-02-12T11:05:34;11.70;58.70
44063;DHT22;29727;47.606;19.130;2023-02-12T11:08:01;11.90;58.40
44063;DHT22;29727;47.606;19.130;2023-02-12T11:12:52;12.20;56.40
44063;DHT22;29727;47.606;19.130;2023-02-12T11:15:21;12.20;56.90
44063;DHT22;29727;47.606;19.130;2023-02-12T11:23:01;12.50;55.70
44063;DHT22;29727;47.606;19.130;2023-02-12T11:25:35;12.50;55.70
44063;DHT22;29727;47.606;19.130;2023-02-12T11:28:16;12.50;55.20
44063;DHT22;29727;47.606;19.130;2023-02-12T11:35:58;12.70;55.10
44063;DHT22;29727;47.606;19.130;2023-02-12T11:38:27;12.70;54.80
44063;DHT22;29727;47.606;19.130;2023-02-12T11:40:57;12.70;54.30
44063;DHT22;29727;47.606;19.130;2023-02-12T11:43:26;12.70;54.60
44063;DHT22;29727;47.606;19.130;2023-02-12T11:45:53;12.60;54.80
44063;DHT22;29727;47.606;19.130;2023-02-12T11:48:22;12.60;54.80
44063;DHT22;29727;47.606;19.130;2023-02-12T11:50:55;12.50;54.80
44063;DHT22;29727;47.606;19.130;2023-02-12T11:53:33;12.50;55.00
44063;DHT22;29727;47.606;19.130;2023-02-12T11:56:05;12.50;55.20
44063;DHT22;29727;47.606;19.130;2023-02-12T11:58:32;12.40;55.20
44063;DHT22;29727;47.606;19.130;2023-02-12T12:03:53;12.40;54.80
44063;DHT22;29727;47.606;19.130;2023-02-12T12:09:12;12.50;54.70
44063;DHT22;29727;47.606;19.130;2023-02-12T12:17:55;12.50;54.10
44063;DHT22;29727;47.606;19.130;2023-02-12T12:21:10;12.50;54.40
44063;DHT22;29727;47.606;19.130;2023-02-12T12:24:18;12.50;54.70
44063;DHT22;29727;47.606;19.130;2023-02-12T12:26:53;12.60;54.70
44063;DHT22;29727;47.606;19.130;2023-02-12T12:32:11;12.70;54.10
44063;DHT22;29727;47.606;19.130;2023-02-12T12:34:39;12.70;54.60
44063;DHT22;29727;47.606;19.130;2023-02-12T12:40:15;12.70;54.50
44063;DHT22;29727;47.606;19.130;2023-02-12T12:43:02;12.80;54.90
44063;DHT22;29727;47.606;19.130;2023-02-12T12:48:09;12.70;54.90
44063;DHT22;29727;47.606;19.130;2023-02-12T12:56:27;12.60;54.90
44063;DHT22;29727;47.606;19.130;2023-02-12T13:15:34;12.10;56.20
44063;DHT22;29727;47.606;19.130;2023-02-12T13:20:45;11.90;57.00
44063;DHT22;29727;47.606;19.130;2023-02-12T13:23:35;11.90;57.20
44063;DHT22;29727;47.606;19.130;2023-02-12T13:26:16;11.80;57.10
44063;DHT22;29727;47.606;19.130;2023-02-12T13:28:53;11.80;57.20
44063;DHT22;29727;47.606;19.130;2023-02-12T13:31:21;11.70;57.20
44063;DHT22;29727;47.606;19.130;2023-02-12T13:33:54;11.60;57.50
44063;DHT22;29727;47.606;19.130;2023-02-12T13:36:21;11.60;57.60
44063;DHT22;29727;47.606;19.130;2023-02-12T13:41:35;11.60;57.70
44063;DHT22;29727;47.606;19.130;2023-02-12T13:44:09;11.60;57.90
44063;DHT22;29727;47.606;19.130;2023-02-12T13:51:41;11.50;57.80
44063;DHT22;29727;47.606;19.130;2023-02-12T13:57:17;11.40;57.10
44063;DHT22;29727;47.606;19.130;2023-02-12T13:59:46;11.40;57.70
44063;DHT22;29727;47.606;19.130;2023-02-12T14:04:57;11.40;58.10
44063;DHT22;29727;47.606;19.130;2023-02-12T14:07:49;11.40;57.90
44063;DHT22;29727;47.606;19.130;2023-02-12T14:10:39;11.30;58.00
44063;DHT22;29727;47.606;19.130;2023-02-12T14:15:52;11.30;58.00
44063;DHT22;29727;47.606;19.130;2023-02-12T14:23:41;11.20;58.20
44063;DHT22;29727;47.606;19.130;2023-02-12T14:26:16;11.20;58.30
44063;DHT22;29727;47.606;19.130;2023-02-12T14:29:03;11.20;58.40
44063;DHT22;29727;47.606;19.130;2023-02-12T14:31:32;11.20;58.40
44063;DHT22;29727;47.606;19.130;2023-02-12T14:46:59;11.10;58.20
44063;DHT22;29727;47.606;19.130;2023-02-12T14:49:44;11.00;58.20
44063;DHT22;29727;47.606;19.130;2023-02-12T14:54:43;11.00;58.50
44063;DHT22;29727;47.606;19.130;2023-02-12T14:57:27;11.00;57.90
44063;DHT22;29727;47.606;19.130;2023-02-12T15:02:51;10.90;58.50
44063;DHT22;29727;47.606;19.130;2023-02-12T15:05:22;10.90;58.60
44063;DHT22;29727;47.606;19.130;2023-02-12T15:07:54;10.90;58.70
44063;DHT22;29727;47.606;19.130;2023-02-12T15:10:40;10.90;58.40
44063;DHT22;29727;47.606;19.130;2023-02-12T15:13:35;10.90;58.50
44063;DHT22;29727;47.606;19.130;2023-02-12T15:16:23;10.90;59.00
44063;DHT22;29727;47.606;19.130;2023-02-12T15:19:06;10.80;58.40
44063;DHT22;29727;47.606;19.130;2023-02-12T15:21:37;10.80;58.50
44063;DHT22;29727;47.606;19.130;2023-02-12T15:24:05;10.80;58.70
44063;DHT22;29727;47.606;19.130;2023-02-12T15:26:42;10.80;58.80
44063;DHT22;29727;47.606;19.130;2023-02-12T15:29:38;10.80;58.80
44063;DHT22;29727;47.606;19.130;2023-02-12T15:32:08;10.80;58.50
44063;DHT22;29727;47.606;19.130;2023-02-12T15:34:39;10.80;58.50
44063;DHT22;29727;47.606;19.130;2023-02-12T15:37:07;10.80;58.50
44063;DHT22;29727;47.606;19.130;2023-02-12T15:39:42;10.70;58.70
44063;DHT22;29727;47.606;19.130;2023-02-12T15:42:31;10.70;58.90
44063;DHT22;29727;47.606;19.130;2023-02-12T15:47:38;10.60;58.80
44063;DHT22;29727;47.606;19.130;2023-02-12T15:50:10;10.50;58.70
44063;DHT22;29727;47.606;19.130;2023-02-12T15:52:38;10.50;58.90
44063;DHT22;29727;47.606;19.130;2023-02-12T15:55:06;10.40;59.00
44063;DHT22;29727;47.606;19.130;2023-02-12T15:57:39;10.40;58.80
44063;DHT22;29727;47.606;19.130;2023-02-12T16:00:09;10.30;59.20
44063;DHT22;29727;47.606;19.130;2023-02-12T16:02:35;10.20;58.60
44063;DHT22;29727;47.606;19.130;2023-02-12T16:05:03;10.20;59.10
44063;DHT22;29727;47.606;19.130;2023-02-12T16:07:35;10.10;59.40
44063;DHT22;29727;47.606;19.130;2023-02-12T16:10:01;10.00;59.40
44063;DHT22;29727;47.606;19.130;2023-02-12T16:12:30;9.90;59.50
44063;DHT22;29727;47.606;19.130;2023-02-12T16:14:58;9.90;59.70
44063;DHT22;29727;47.606;19.130;2023-02-12T16:17:29;9.70;59.60
44063;DHT22;29727;47.606;19.130;2023-02-12T16:20:05;9.70;60.30
44063;DHT22;29727;47.606;19.130;2023-02-12T16:22:38;9.60;59.80
44063;DHT22;29727;47.606;19.130;2023-02-12T16:25:31;9.50;59.90
44063;DHT22;29727;47.606;19.130;2023-02-12T16:28:14;9.40;60.00
44063;DHT22;29727;47.606;19.130;2023-02-12T16:30:42;9.30;60.00
44063;DHT22;29727;47.606;19.130;2023-02-12T16:33:31;9.30;60.00
44063;DHT22;29727;47.606;19.130;2023-02-12T16:36:03;9.10;60.40
44063;DHT22;29727;47.606;19.130;2023-02-12T16:46:50;8.70;60.90
44063;DHT22;29727;47.606;19.130;2023-02-12T16:49:19;8.60;61.10
44063;DHT22;29727;47.606;19.130;2023-02-12T16:51:46;8.50;60.80
44063;DHT22;29727;47.606;19.130;2023-02-12T16:56:50;8.40;61.00
44063;DHT22;29727;47.606;19.130;2023-02-12T16:59:16;8.30;61.70
44063;DHT22;29727;47.606;19.130;2023-02-12T17:02:16;8.20;62.00
44063;DHT22;29727;47.606;19.130;2023-02-12T17:04:41;8.20;62.00
44063;DHT22;29727;47.606;19.130;2023-02-12T17:07:24;8.10;62.00
44063;DHT22;29727;47.606;19.130;2023-02-12T17:09:52;8.00;62.10
44063;DHT22;29727;47.606;19.130;2023-02-12T17:12:18;7.90;62.20
44063;DHT22;29727;47.606;19.130;2023-02-12T17:14:45;7.90;62.50
44063;DHT22;29727;47.606;19.130;2023-02-12T17:17:10;7.80;62.70
44063;DHT22;29727;47.606;19.130;2023-02-12T17:19:36;7.70;62.80
44063;DHT22;29727;47.606;19.130;2023-02-12T17:22:02;7.60;62.90
44063;DHT22;29727;47.606;19.130;2023-02-12T17:24:30;7.60;63.00
44063;DHT22;29727;47.606;19.130;2023-02-12T17:26:56;7.40;62.80
44063;DHT22;29727;47.606;19.130;2023-02-12T17:29:23;7.40;63.30
44063;DHT22;29727;47.606;19.130;2023-02-12T17:31:50;7.40;63.40
44063;DHT22;29727;47.606;19.130;2023-02-12T17:34:21;7.30;63.20
44063;DHT22;29727;47.606;19.130;2023-02-12T17:36:47;7.30;63.20
44063;DHT22;29727;47.606;19.130;2023-02-12T17:39:15;7.20;62.90
44063;DHT22;29727;47.606;19.130;2023-02-12T17:41:42;7.10;63.20
44063;DHT22;29727;47.606;19.130;2023-02-12T17:44:09;7.00;63.90
44063;DHT22;29727;47.606;19.130;2023-02-12T17:46:36;7.00;64.10
44063;DHT22;29727;47.606;19.130;2023-02-12T17:49:03;6.90;64.20
44063;DHT22;29727;47.606;19.130;2023-02-12T17:51:29;6.90;64.40
44063;DHT22;29727;47.606;19.130;2023-02-12T17:53:54;6.80;64.40
44063;DHT22;29727;47.606;19.130;2023-02-12T17:56:22;6.70;63.60
44063;DHT22;29727;47.606;19.130;2023-02-12T17:58:51;6.70;64.20
44063;DHT22;29727;47.606;19.130;2023-02-12T18:01:18;6.60;64.10
44063;DHT22;29727;47.606;19.130;2023-02-12T18:03:44;6.60;64.20
44063;DHT22;29727;47.606;19.130;2023-02-12T18:06:10;6.50;64.30
44063;DHT22;29727;47.606;19.130;2023-02-12T18:08:39;6.50;64.70
44063;DHT22;29727;47.606;19.130;2023-02-12T18:11:07;6.40;64.70
44063;DHT22;29727;47.606;19.130;2023-02-12T18:13:34;6.30;64.80
44063;DHT22;29727;47.606;19.130;2023-02-12T18:16:00;6.30;64.90
44063;DHT22;29727;47.606;19.130;2023-02-12T18:18:26;6.20;65.00
44063;DHT22;29727;47.606;19.130;2023-02-12T18:20:52;6.20;65.10
44063;DHT22;29727;47.606;19.130;2023-02-12T18:23:17;6.10;65.00
44063;DHT22;29727;47.606;19.130;2023-02-12T18:25:43;6.10;65.10
44063;DHT22;29727;47.606;19.130;2023-02-12T18:28:10;6.00;65.20
44063;DHT22;29727;47.606;19.130;2023-02-12T18:30:36;6.00;65.30
44063;DHT22;29727;47.606;19.130;2023-02-12T18:33:04;5.90;65.10
44063;DHT22;29727;47.606;19.130;2023-02-12T18:35:31;5.90;65.30
44063;DHT22;29727;47.606;19.130;2023-02-12T18:37:57;5.80;65.40
44063;DHT22;29727;47.606;19.130;2023-02-12T18:40:22;5.80;65.50
44063;DHT22;29727;47.606;19.130;2023-02-12T18:42:50;5.70;65.60
44063;DHT22;29727;47.606;19.130;2023-02-12T18:45:15;5.70;65.70